createdAt,value
2019-02-11T00:01:01.405Z,6.20
2019-02-11T00:03:31.781Z,6.00
2019-02-11T00:06:02.150Z,5.90
2019-02-11T00:08:32.513Z,5.90
2019-02-11T00:11:02.889Z,5.80
2019-02-11T00:13:33.272Z,5.60
2019-02-11T00:16:03.712Z,5.60
2019-02-11T00:18:35.037Z,5.50
2019-02-11T00:21:05.406Z,5.40
2019-02-11T00:23:35.752Z,5.30
2019-02-11T00:26:06.121Z,5.30
2019-02-11T00:28:36.471Z,5.30
2019-02-11T00:31:06.843Z,5.30
2019-02-11T00:33:37.190Z,5.20
2019-02-11T00:36:07.557Z,5.20
2019-02-11T00:38:37.911Z,5.20
2019-02-11T00:41:08.271Z,5.20
2019-02-11T00:43:38.621Z,5.20
2019-02-11T00:46:08.995Z,5.10
2019-02-11T00:48:39.365Z,5.10
2019-02-11T00:51:09.753Z,5.10
2019-02-11T00:53:40.058Z,5.00
2019-02-11T00:56:10.425Z,5.00
2019-02-11T00:58:40.771Z,4.80
2019-02-11T01:01:11.139Z,4.80
2019-02-11T01:03:41.493Z,4.70
2019-02-11T01:06:11.858Z,4.60
2019-02-11T01:08:42.200Z,4.60
2019-02-11T01:11:12.564Z,4.60
2019-02-11T01:13:42.915Z,4.50
2019-02-11T01:16:13.284Z,4.50
2019-02-11T01:18:43.652Z,4.40
2019-02-11T01:21:14.010Z,4.40
2019-02-11T01:23:44.352Z,4.20
2019-02-11T01:26:14.716Z,4.10
2019-02-11T01:28:45.060Z,4.00
2019-02-11T01:31:15.433Z,3.90
2019-02-11T01:33:45.793Z,3.80
2019-02-11T01:36:16.158Z,3.70
2019-02-11T01:38:46.599Z,3.60
2019-02-11T01:41:16.955Z,3.50
2019-02-11T01:43:47.302Z,3.40
2019-02-11T01:46:17.671Z,3.40
2019-02-11T01:48:48.033Z,3.30
2019-02-11T01:51:18.408Z,3.30
2019-02-11T01:53:48.748Z,3.20
2019-02-11T01:56:19.117Z,3.10
2019-02-11T01:58:49.468Z,3.00
2019-02-11T02:01:19.822Z,3.00
2019-02-11T02:03:50.178Z,3.00
2019-02-11T02:06:20.539Z,3.00
2019-02-11T02:08:50.880Z,2.90
2019-02-11T02:11:21.311Z,2.90
2019-02-11T02:13:51.655Z,2.90
2019-02-11T02:16:22.027Z,2.80
2019-02-11T02:18:52.373Z,2.80
2019-02-11T02:21:22.731Z,2.80
2019-02-11T02:23:53.075Z,2.70
2019-02-11T02:26:23.442Z,2.60
2019-02-11T02:28:53.844Z,2.60
2019-02-11T02:31:24.159Z,2.60
2019-02-11T02:33:54.506Z,2.50
2019-02-11T02:36:24.883Z,2.40
2019-02-11T02:38:55.230Z,2.30
2019-02-11T02:41:25.591Z,2.20
2019-02-11T02:43:56.046Z,2.20
2019-02-11T02:46:26.384Z,2.10
2019-02-11T02:48:56.724Z,2.00
2019-02-11T02:51:27.087Z,1.90
2019-02-11T02:53:57.430Z,1.90
2019-02-11T02:56:27.795Z,1.80
2019-02-11T02:58:58.135Z,1.80
2019-02-11T03:01:28.506Z,1.80
2019-02-11T03:03:59.939Z,1.80
2019-02-11T03:06:30.281Z,1.80
2019-02-11T03:09:00.645Z,1.90
2019-02-11T03:11:31.055Z,1.90
2019-02-11T03:14:05.906Z,1.90
2019-02-11T03:16:33.458Z,1.90
2019-02-11T03:19:03.818Z,1.90
2019-02-11T03:21:34.161Z,1.80
2019-02-11T03:24:04.521Z,1.80
2019-02-11T03:26:34.866Z,1.80
2019-02-11T03:29:05.231Z,1.90
2019-02-11T03:31:35.584Z,1.90
2019-02-11T03:34:05.955Z,2.00
2019-02-11T03:36:36.314Z,2.00
2019-02-11T03:39:07.831Z,2.10
2019-02-11T03:41:38.177Z,2.20
2019-02-11T03:44:14.820Z,2.30
2019-02-11T03:46:40.601Z,2.40
2019-02-11T03:49:10.968Z,2.50
2019-02-11T03:51:41.311Z,2.60
2019-02-11T03:54:11.970Z,2.70
2019-02-11T03:56:42.311Z,2.80
2019-02-11T03:59:12.698Z,2.90
2019-02-11T04:01:43.045Z,3.00
2019-02-11T04:04:14.493Z,3.10
2019-02-11T04:06:44.844Z,3.20
2019-02-11T04:09:15.225Z,3.30
2019-02-11T04:11:45.579Z,3.40
2019-02-11T04:14:24.579Z,3.40
2019-02-11T04:16:48.101Z,3.50
2019-02-11T04:19:18.471Z,3.60
2019-02-11T04:21:51.891Z,3.60
2019-02-11T04:24:22.267Z,3.60
2019-02-11T04:26:52.631Z,3.70
2019-02-11T04:29:23.013Z,3.70
2019-02-11T04:31:53.355Z,3.80
2019-02-11T04:34:23.735Z,3.80
2019-02-11T04:36:54.079Z,3.80
2019-02-11T04:39:24.451Z,3.80
2019-02-11T04:41:54.792Z,3.80
2019-02-11T04:44:33.655Z,3.80
2019-02-11T04:46:57.228Z,3.80
2019-02-11T04:49:27.603Z,3.70
2019-02-11T04:51:58.953Z,3.70
2019-02-11T04:54:29.522Z,3.70
2019-02-11T04:56:59.845Z,3.70
2019-02-11T04:59:30.222Z,3.80
2019-02-11T05:02:00.685Z,3.80
2019-02-11T05:04:31.052Z,3.80
2019-02-11T05:07:01.400Z,3.90
2019-02-11T05:09:31.767Z,3.90
2019-02-11T05:12:02.126Z,3.90
2019-02-11T05:14:32.500Z,4.00
2019-02-11T05:17:02.845Z,4.00
2019-02-11T05:19:33.221Z,4.00
2019-02-11T05:22:03.570Z,4.00
2019-02-11T05:24:33.950Z,4.00
2019-02-11T05:27:04.295Z,4.00
2019-02-11T05:29:34.667Z,4.00
2019-02-11T05:32:05.023Z,4.00
2019-02-11T05:34:35.392Z,4.00
2019-02-11T05:37:05.742Z,4.00
2019-02-11T05:39:36.111Z,4.10
2019-02-11T05:42:06.460Z,4.10
2019-02-11T05:44:36.824Z,4.10
2019-02-11T05:47:07.172Z,4.10
2019-02-11T05:49:37.566Z,4.10
2019-02-11T05:52:07.923Z,4.10
2019-02-11T05:54:38.303Z,4.10
2019-02-11T05:57:08.652Z,4.20
2019-02-11T05:59:39.032Z,4.20
2019-02-11T06:02:10.351Z,4.20
2019-02-11T06:04:40.730Z,4.20
2019-02-11T06:07:11.069Z,4.30
2019-02-11T06:09:41.449Z,4.30
2019-02-11T06:12:11.895Z,4.30
2019-02-11T06:14:42.273Z,4.20
2019-02-11T06:17:12.627Z,4.20
2019-02-11T06:19:42.997Z,4.30
2019-02-11T06:22:13.347Z,4.30
2019-02-11T06:24:43.719Z,4.30
2019-02-11T06:27:14.065Z,4.30
2019-02-11T06:29:44.496Z,4.30
2019-02-11T06:32:14.840Z,4.30
2019-02-11T06:34:45.214Z,4.40
2019-02-11T06:37:15.568Z,4.30
2019-02-11T06:39:45.949Z,4.40
2019-02-11T06:42:16.303Z,4.40
2019-02-11T06:44:46.685Z,4.40
2019-02-11T06:47:17.029Z,4.40
2019-02-11T06:49:47.499Z,4.40
2019-02-11T06:52:17.844Z,4.40
2019-02-11T06:54:48.232Z,4.40
2019-02-11T06:57:18.576Z,4.40
2019-02-11T06:59:48.987Z,4.40
2019-02-11T07:02:19.328Z,4.40
2019-02-11T07:04:49.702Z,4.40
2019-02-11T07:07:20.056Z,4.50
2019-02-11T07:09:50.430Z,4.50
2019-02-11T07:12:20.776Z,4.50
2019-02-11T07:14:51.172Z,4.60
2019-02-11T07:17:21.527Z,4.60
2019-02-11T07:19:51.906Z,4.60
2019-02-11T07:22:22.261Z,4.50
2019-02-11T07:24:52.644Z,4.60
2019-02-11T07:27:23.152Z,4.60
2019-02-11T07:29:53.536Z,4.70
2019-02-11T07:32:23.876Z,4.70
2019-02-11T07:34:54.341Z,4.70
2019-02-11T07:37:24.690Z,4.70
2019-02-11T07:39:55.065Z,4.70
2019-02-11T07:42:30.353Z,4.70
2019-02-11T07:45:00.999Z,4.70
2019-02-11T07:47:32.315Z,4.70
2019-02-11T07:50:03.055Z,4.70
2019-02-11T07:52:34.374Z,4.70
2019-02-11T07:55:06.261Z,4.70
2019-02-11T07:57:36.608Z,4.70
2019-02-11T08:00:10.077Z,4.80
2019-02-11T08:02:40.417Z,4.80
2019-02-11T08:05:10.802Z,4.80
2019-02-11T08:07:41.229Z,4.80
2019-02-11T08:10:11.619Z,4.80
2019-02-11T08:12:41.976Z,4.80
2019-02-11T08:15:12.517Z,4.90
2019-02-11T08:17:42.936Z,4.90
2019-02-11T08:20:13.347Z,4.90
2019-02-11T08:22:44.764Z,5.00
2019-02-11T08:25:15.116Z,5.00
2019-02-11T08:27:45.484Z,5.10
2019-02-11T08:30:15.852Z,5.10
2019-02-11T08:32:46.198Z,5.10
2019-02-11T08:35:16.570Z,5.20
2019-02-11T08:37:46.919Z,5.20
2019-02-11T08:40:17.280Z,5.20
2019-02-11T08:42:47.630Z,5.10
2019-02-11T08:45:17.997Z,5.10
2019-02-11T08:47:48.346Z,5.20
2019-02-11T08:50:18.723Z,5.30
2019-02-11T08:52:49.065Z,5.30
2019-02-11T08:55:19.430Z,5.40
2019-02-11T08:57:49.792Z,5.40
2019-02-11T09:00:20.164Z,5.50
2019-02-11T09:02:50.510Z,5.40
2019-02-11T09:05:20.886Z,5.40
2019-02-11T09:07:52.844Z,5.40
2019-02-11T09:10:23.216Z,5.50
2019-02-11T09:12:53.560Z,5.60
2019-02-11T09:15:24.090Z,5.60
2019-02-11T09:17:54.430Z,5.60
2019-02-11T09:20:24.843Z,5.60
2019-02-11T09:22:55.183Z,5.60
2019-02-11T09:25:25.621Z,5.50
2019-02-11T09:27:55.972Z,5.50
2019-02-11T09:30:26.386Z,5.40
2019-02-11T09:32:56.687Z,5.40
2019-02-11T09:35:27.063Z,5.50
2019-02-11T09:37:57.410Z,5.60
2019-02-11T09:40:27.783Z,5.70
2019-02-11T09:42:58.143Z,5.70
2019-02-11T09:45:28.521Z,5.70
2019-02-11T09:47:58.869Z,5.80
2019-02-11T09:50:45.140Z,5.80
2019-02-11T09:53:15.494Z,5.80
2019-02-11T09:55:45.921Z,5.80
2019-02-11T09:58:16.338Z,5.80
2019-02-11T10:00:46.712Z,5.80
2019-02-11T10:03:17.080Z,5.80
2019-02-11T10:05:47.451Z,5.90
2019-02-11T10:08:17.788Z,6.10
2019-02-11T10:10:48.431Z,6.20
2019-02-11T10:13:19.413Z,6.30
2019-02-11T10:15:49.763Z,6.40
2019-02-11T10:18:20.328Z,6.40
2019-02-11T10:20:50.685Z,6.50
2019-02-11T10:23:21.054Z,6.50
2019-02-11T10:25:51.430Z,6.40
2019-02-11T10:28:21.783Z,6.40
2019-02-11T10:30:52.157Z,6.50
2019-02-11T10:33:22.541Z,6.60
2019-02-11T10:35:52.949Z,6.60
2019-02-11T10:38:23.313Z,6.40
2019-02-11T10:40:53.684Z,6.60
2019-02-11T10:43:24.039Z,6.70
2019-02-11T10:45:54.433Z,6.70
2019-02-11T10:48:25.462Z,6.60
2019-02-11T10:50:55.833Z,6.60
2019-02-11T10:53:26.253Z,6.60
2019-02-11T10:55:56.624Z,6.70
2019-02-11T10:58:27.044Z,7.00
2019-02-11T11:00:57.420Z,7.20
2019-02-11T11:03:27.771Z,7.30
2019-02-11T11:05:58.142Z,7.30
2019-02-11T11:08:28.516Z,7.30
2019-02-11T11:10:58.913Z,7.40
2019-02-11T11:13:29.270Z,7.60
2019-02-11T11:15:59.675Z,7.70
2019-02-11T11:18:30.023Z,7.70
2019-02-11T11:21:00.415Z,7.90
2019-02-11T11:23:30.779Z,7.90
2019-02-11T11:26:01.164Z,7.80
2019-02-11T11:28:31.530Z,7.70
2019-02-11T11:31:01.913Z,7.50
2019-02-11T11:33:32.279Z,7.30
2019-02-11T11:36:02.669Z,7.20
2019-02-11T11:38:33.048Z,7.20
2019-02-11T11:41:04.577Z,7.10
2019-02-11T11:43:34.922Z,7.10
2019-02-11T11:46:05.333Z,7.10
2019-02-11T11:48:35.703Z,7.00
2019-02-11T11:51:06.090Z,6.90
2019-02-11T11:53:36.528Z,7.00
2019-02-11T11:56:06.901Z,7.10
2019-02-11T11:58:37.452Z,7.10
2019-02-11T12:01:07.869Z,7.10
2019-02-11T12:03:38.228Z,7.00
2019-02-11T12:06:09.569Z,6.90
2019-02-11T12:08:40.110Z,6.80
2019-02-11T12:11:10.482Z,6.80
2019-02-11T12:13:40.845Z,6.90
2019-02-11T12:16:11.235Z,7.00
2019-02-11T12:18:41.691Z,7.00
2019-02-11T12:21:12.098Z,7.00
2019-02-11T12:23:42.429Z,7.00
2019-02-11T12:26:12.806Z,7.00
2019-02-11T12:28:43.233Z,7.00
2019-02-11T12:31:13.628Z,7.10
2019-02-11T12:33:43.963Z,7.20
2019-02-11T12:36:14.590Z,7.40
2019-02-11T12:38:44.959Z,7.80
2019-02-11T12:41:15.322Z,9.50
2019-02-11T12:43:45.693Z,11.70
2019-02-11T12:46:16.090Z,13.40
2019-02-11T12:48:46.458Z,14.10
2019-02-11T12:51:16.868Z,13.80
2019-02-11T12:53:47.238Z,13.70
2019-02-11T12:56:17.635Z,13.90
2019-02-11T12:58:47.990Z,13.60
2019-02-11T13:01:18.389Z,13.60
2019-02-11T13:03:48.757Z,14.20
2019-02-11T13:06:19.151Z,14.00
2019-02-11T13:08:49.542Z,14.00
2019-02-11T13:11:19.922Z,13.30
2019-02-11T13:13:50.295Z,12.20
2019-02-11T13:16:20.680Z,11.90
2019-02-11T13:18:51.065Z,12.30
2019-02-11T13:21:21.549Z,12.30
2019-02-11T13:23:51.919Z,11.90
2019-02-11T13:26:22.303Z,11.40
2019-02-11T13:28:52.660Z,10.80
2019-02-11T13:31:23.143Z,10.40
2019-02-11T13:33:53.518Z,10.10
2019-02-11T13:36:23.926Z,9.70
2019-02-11T13:38:54.302Z,9.20
2019-02-11T13:41:24.859Z,9.00
2019-02-11T13:43:55.213Z,8.80
2019-02-11T13:46:25.657Z,8.80
2019-02-11T13:48:56.095Z,8.70
2019-02-11T13:51:26.481Z,8.60
2019-02-11T13:53:56.832Z,8.40
2019-02-11T13:56:27.232Z,8.40
2019-02-11T13:58:57.596Z,8.50
2019-02-11T14:01:27.999Z,8.70
2019-02-11T14:03:58.342Z,8.90
2019-02-11T14:06:29.236Z,8.90
2019-02-11T14:08:59.591Z,8.80
2019-02-11T14:11:29.998Z,8.90
2019-02-11T14:14:03.136Z,8.70
2019-02-11T14:16:32.441Z,8.60
2019-02-11T14:19:02.841Z,8.30
2019-02-11T14:21:33.260Z,8.00
2019-02-11T14:24:03.607Z,7.80
2019-02-11T14:26:35.087Z,7.90
2019-02-11T14:29:05.570Z,8.50
2019-02-11T14:31:36.640Z,9.40
2019-02-11T14:34:10.316Z,10.40
2019-02-11T14:36:43.058Z,11.10
2019-02-11T14:39:13.372Z,11.90
2019-02-11T14:41:43.838Z,12.50
2019-02-11T14:44:14.544Z,12.20
2019-02-11T14:46:45.121Z,11.30
2019-02-11T14:49:15.546Z,10.50
2019-02-11T14:51:45.993Z,9.40
2019-02-11T14:54:16.411Z,8.90
2019-02-11T14:56:46.858Z,8.60
2019-02-11T14:59:17.208Z,8.10
2019-02-11T15:01:47.596Z,7.80
2019-02-11T15:04:17.950Z,7.40
2019-02-11T15:06:48.342Z,7.00
2019-02-11T15:09:18.694Z,7.00
2019-02-11T15:11:49.073Z,6.90
2019-02-11T15:14:19.430Z,6.70
2019-02-11T15:16:49.828Z,6.50
2019-02-11T15:19:20.177Z,6.30
2019-02-11T15:21:50.561Z,6.20
2019-02-11T15:24:20.925Z,6.10
2019-02-11T15:26:53.137Z,6.00
2019-02-11T15:29:23.369Z,6.00
2019-02-11T15:31:53.735Z,5.90
2019-02-11T15:34:24.086Z,5.80
2019-02-11T15:36:54.473Z,5.80
2019-02-11T15:39:24.832Z,5.80
2019-02-11T15:41:55.211Z,5.80
2019-02-11T15:44:25.568Z,5.80
2019-02-11T15:46:55.952Z,5.80
2019-02-11T15:49:26.309Z,5.90
2019-02-11T15:51:56.696Z,5.90
2019-02-11T15:54:28.028Z,5.90
2019-02-11T15:57:00.848Z,5.90
2019-02-11T15:59:31.200Z,5.90
2019-02-11T16:02:01.585Z,5.90
2019-02-11T16:04:31.934Z,6.00
2019-02-11T16:07:02.315Z,6.00
2019-02-11T16:09:32.770Z,6.00
2019-02-11T16:12:03.181Z,6.00
2019-02-11T16:14:33.578Z,5.90
2019-02-11T16:17:03.967Z,5.80
2019-02-11T16:19:34.319Z,5.80
2019-02-11T16:22:04.696Z,5.70
2019-02-11T16:24:35.052Z,5.60
2019-02-11T16:27:05.435Z,5.40
2019-02-11T16:29:48.371Z,5.30
2019-02-11T16:32:18.750Z,5.20
2019-02-11T16:34:49.102Z,5.10
2019-02-11T16:37:19.486Z,5.10
2019-02-11T16:39:49.845Z,5.00
2019-02-11T16:42:20.336Z,4.90
2019-02-11T16:44:50.719Z,4.90
2019-02-11T16:47:21.127Z,4.80
2019-02-11T16:49:51.521Z,4.80
2019-02-11T16:52:21.926Z,4.70
2019-02-11T16:54:52.499Z,4.60
2019-02-11T16:57:22.873Z,4.50
2019-02-11T16:59:53.244Z,4.50
2019-02-11T17:02:24.675Z,4.40
2019-02-11T17:04:55.032Z,4.40
2019-02-11T17:07:25.412Z,4.30
2019-02-11T17:09:55.762Z,4.20
2019-02-11T17:12:26.201Z,4.20
2019-02-11T17:14:56.564Z,4.10
2019-02-11T17:17:26.937Z,4.10
2019-02-11T17:19:57.297Z,4.00
2019-02-11T17:22:27.703Z,3.90
2019-02-11T17:24:58.036Z,3.90
2019-02-11T17:27:28.424Z,3.80
2019-02-11T17:29:58.780Z,3.80
2019-02-11T17:32:29.178Z,3.70
2019-02-11T17:34:59.532Z,3.70
2019-02-11T17:37:29.911Z,3.60
2019-02-11T17:40:00.301Z,3.60
2019-02-11T17:42:30.645Z,3.60
2019-02-11T17:45:01.060Z,3.50
2019-02-11T17:47:33.044Z,3.50
2019-02-11T17:50:03.761Z,3.60
2019-02-11T17:52:34.136Z,3.50
2019-02-11T17:55:05.631Z,3.50
2019-02-11T17:57:37.626Z,3.40
2019-02-11T18:00:20.641Z,3.40
2019-02-11T18:02:51.044Z,3.30
2019-02-11T18:05:21.403Z,3.30
2019-02-11T18:07:51.790Z,3.20
2019-02-11T18:10:22.160Z,3.20
2019-02-11T18:12:52.544Z,3.20
2019-02-11T18:15:22.918Z,3.20
2019-02-11T18:17:53.307Z,3.20
2019-02-11T18:20:23.733Z,3.30
2019-02-11T18:22:54.118Z,3.30
2019-02-11T18:25:25.420Z,3.40
2019-02-11T18:27:55.783Z,3.40
2019-02-11T18:30:26.145Z,3.40
2019-02-11T18:32:56.537Z,3.30
2019-02-11T18:35:26.884Z,3.30
2019-02-11T18:37:57.293Z,3.30
2019-02-11T18:40:27.655Z,3.20
2019-02-11T18:42:58.052Z,3.20
2019-02-11T18:45:28.447Z,3.20
2019-02-11T18:47:58.814Z,3.10
2019-02-11T18:50:29.863Z,3.10
2019-02-11T18:53:00.240Z,3.10
2019-02-11T18:55:30.584Z,3.00
2019-02-11T18:58:00.956Z,3.00
2019-02-11T19:00:31.309Z,3.00
2019-02-11T19:03:01.682Z,3.00
2019-02-11T19:05:32.029Z,3.00
2019-02-11T19:08:02.405Z,2.90
2019-02-11T19:10:32.752Z,2.90
2019-02-11T19:13:03.134Z,2.80
2019-02-11T19:15:33.487Z,2.80
2019-02-11T19:18:03.857Z,2.70
2019-02-11T19:20:34.248Z,2.70
2019-02-11T19:23:04.860Z,2.60
2019-02-11T19:25:35.215Z,2.60
2019-02-11T19:28:05.593Z,2.60
2019-02-11T19:30:37.087Z,2.50
2019-02-11T19:33:07.466Z,2.50
2019-02-11T19:35:37.811Z,2.50
2019-02-11T19:38:08.191Z,2.50
2019-02-11T19:40:38.542Z,2.50
2019-02-11T19:43:10.779Z,2.50
2019-02-11T19:45:51.907Z,2.50
2019-02-11T19:48:22.248Z,2.60
2019-02-11T19:50:52.592Z,2.60
2019-02-11T19:53:22.965Z,2.60
2019-02-11T19:55:53.322Z,2.60
2019-02-11T19:58:23.692Z,2.70
2019-02-11T20:00:54.077Z,2.70
2019-02-11T20:03:24.456Z,2.70
2019-02-11T20:05:54.813Z,2.80
2019-02-11T20:08:25.188Z,2.80
2019-02-11T20:10:55.580Z,2.70
2019-02-11T20:13:25.963Z,2.70
2019-02-11T20:15:56.313Z,2.70
2019-02-11T20:18:26.689Z,2.70
2019-02-11T20:20:57.041Z,2.70
2019-02-11T20:23:27.404Z,2.70
2019-02-11T20:25:57.763Z,2.70
2019-02-11T20:28:28.133Z,2.70
2019-02-11T20:30:58.490Z,2.70
2019-02-11T20:33:29.837Z,2.80
2019-02-11T20:36:00.197Z,2.80
2019-02-11T20:38:30.574Z,2.80
2019-02-11T20:41:00.922Z,2.80
2019-02-11T20:43:31.293Z,2.70
2019-02-11T20:46:01.755Z,2.70
2019-02-11T20:48:32.137Z,2.70
2019-02-11T20:51:02.661Z,2.70
2019-02-11T20:53:33.042Z,2.60
2019-02-11T20:56:03.397Z,2.60
2019-02-11T20:58:33.849Z,2.60
2019-02-11T21:01:04.209Z,2.50
2019-02-11T21:03:34.863Z,2.50
2019-02-11T21:06:05.271Z,2.50
2019-02-11T21:08:35.649Z,2.50
2019-02-11T21:11:06.006Z,2.50
2019-02-11T21:13:37.358Z,2.50
2019-02-11T21:16:07.710Z,2.40
2019-02-11T21:18:38.091Z,2.40
2019-02-11T21:21:08.443Z,2.40
2019-02-11T21:23:38.823Z,2.30
2019-02-11T21:26:09.178Z,2.30
2019-02-11T21:28:39.566Z,2.30
2019-02-11T21:31:09.917Z,2.30
2019-02-11T21:33:40.306Z,2.20
2019-02-11T21:36:10.669Z,2.20
2019-02-11T21:38:41.048Z,2.20
2019-02-11T21:41:11.412Z,2.20
2019-02-11T21:43:41.931Z,2.20
2019-02-11T21:46:12.280Z,2.20
2019-02-11T21:48:42.655Z,2.20
2019-02-11T21:51:13.075Z,2.20
2019-02-11T21:53:43.449Z,2.10
2019-02-11T21:56:14.918Z,2.00
2019-02-11T21:58:45.898Z,2.00
2019-02-11T22:01:16.951Z,2.00
2019-02-11T22:03:50.655Z,1.90
2019-02-11T22:06:22.394Z,1.90
2019-02-11T22:08:53.533Z,1.90
2019-02-11T22:11:24.594Z,1.90
2019-02-11T22:13:58.295Z,1.90
2019-02-11T22:16:29.230Z,1.90
2019-02-11T22:18:59.689Z,1.90
2019-02-11T22:21:30.352Z,1.80
2019-02-11T22:24:00.874Z,1.80
2019-02-11T22:26:32.584Z,1.80
2019-02-11T22:29:03.410Z,1.80
2019-02-11T22:31:34.141Z,1.80
2019-02-11T22:34:04.702Z,1.80
2019-02-11T22:36:35.507Z,1.90
2019-02-11T22:39:08.459Z,1.90
2019-02-11T22:41:39.207Z,2.00
2019-02-11T22:44:09.791Z,2.10
2019-02-11T22:46:40.269Z,2.20
2019-02-11T22:49:10.747Z,2.30
2019-02-11T22:51:41.102Z,2.40
2019-02-11T22:54:11.635Z,2.50
2019-02-11T22:56:42.120Z,2.50
2019-02-11T22:59:12.501Z,2.50
2019-02-11T23:01:43.143Z,2.50
2019-02-11T23:04:13.625Z,2.50
2019-02-11T23:06:44.086Z,2.50
2019-02-11T23:09:14.581Z,2.50
2019-02-11T23:11:45.044Z,2.50
2019-02-11T23:14:15.511Z,2.60
2019-02-11T23:16:45.929Z,2.60
2019-02-11T23:19:16.511Z,2.70
2019-02-11T23:21:46.869Z,2.70
2019-02-11T23:24:17.263Z,2.80
2019-02-11T23:26:47.672Z,2.80
2019-02-11T23:29:18.045Z,2.90
2019-02-11T23:31:48.396Z,2.90
2019-02-11T23:34:18.770Z,2.90
2019-02-11T23:36:49.129Z,2.80
2019-02-11T23:39:19.496Z,2.80
2019-02-11T23:41:49.845Z,2.80
2019-02-11T23:44:20.216Z,2.70
2019-02-11T23:46:50.569Z,2.70
2019-02-11T23:49:20.944Z,2.70
2019-02-11T23:51:51.294Z,2.60
2019-02-11T23:54:21.666Z,2.60
2019-02-11T23:56:52.027Z,2.60
2019-02-11T23:59:22.385Z,2.60
